createdAt,value
2024-02-19T00:00:24.885Z,100638.78
2024-02-19T00:00:58.568Z,100630.88
2024-02-19T00:01:30.204Z,100639.03
2024-02-19T00:02:01.719Z,100642.56
2024-02-19T00:02:33.222Z,100643.41
2024-02-19T00:03:04.663Z,100638.78
2024-02-19T00:03:36.147Z,100638.78
2024-02-19T00:04:07.701Z,100647.75
2024-02-19T00:04:39.316Z,100642.56
2024-02-19T00:05:10.882Z,100642.56
2024-02-19T00:05:42.395Z,100639.03
2024-02-19T00:06:13.921Z,100645.03
2024-02-19T00:06:45.419Z,100648.03
2024-02-19T00:07:17.018Z,100638.78
2024-02-19T00:07:48.677Z,100644.22
2024-02-19T00:08:20.302Z,100637.13
2024-02-19T00:08:51.819Z,100638.78
2024-02-19T00:09:23.391Z,100653.19
2024-02-19T00:09:54.880Z,100645.03
2024-02-19T00:10:26.752Z,100649.91
2024-02-19T00:10:58.356Z,100649.66
2024-02-19T00:11:29.910Z,100659.72
2024-02-19T00:12:01.391Z,100654.28
2024-02-19T00:12:32.973Z,100653.47
2024-02-19T00:13:04.531Z,100658.91
2024-02-19T00:13:36.016Z,100667.88
2024-02-19T00:14:07.545Z,100661.63
2024-02-19T00:14:39.096Z,100652.63
2024-02-19T00:15:10.672Z,100657.25
2024-02-19T00:15:42.191Z,100659.97
2024-02-19T00:16:13.848Z,100667.88
2024-02-19T00:16:45.401Z,100672.50
2024-02-19T00:17:16.848Z,100663.53
2024-02-19T00:17:48.379Z,100672.50
2024-02-19T00:18:19.933Z,100656.19
2024-02-19T00:18:51.503Z,100666.25
2024-02-19T00:19:23.121Z,100675.47
2024-02-19T00:19:54.792Z,100674.66
2024-02-19T00:20:26.266Z,100679.28
2024-02-19T00:20:57.719Z,100691.00
2024-02-19T00:21:29.207Z,100671.94
2024-02-19T00:22:00.722Z,100682.00
2024-02-19T00:22:32.196Z,100685.00
2024-02-19T00:23:03.693Z,100682.28
2024-02-19T00:23:35.218Z,100679.28
2024-02-19T00:24:06.799Z,100685.53
2024-02-19T00:24:38.382Z,100679.53
2024-02-19T00:25:09.986Z,100680.38
2024-02-19T00:25:41.485Z,100685.81
2024-02-19T00:26:12.914Z,100674.94
2024-02-19T00:26:46.952Z,100681.19
2024-02-19T00:27:18.376Z,100683.09
2024-02-19T00:27:49.886Z,100685.81
2024-02-19T00:28:21.432Z,100686.63
2024-02-19T00:28:52.985Z,100689.59
2024-02-19T00:29:24.529Z,100685.00
2024-02-19T00:29:56.186Z,100695.06
2024-02-19T00:30:27.632Z,100692.06
2024-02-19T00:30:59.127Z,100692.06
2024-02-19T00:31:30.565Z,100685.81
2024-02-19T00:32:02.035Z,100690.16
2024-02-19T00:32:33.631Z,100698.06
2024-02-19T00:33:05.193Z,100691.53
2024-02-19T00:33:36.893Z,100697.25
2024-02-19T00:34:09.911Z,100698.34
2024-02-19T00:34:41.524Z,100697.25
2024-02-19T00:35:13.004Z,100703.22
2024-02-19T00:35:44.493Z,100704.03
2024-02-19T00:36:15.943Z,100704.84
2024-02-19T00:36:47.601Z,100699.66
2024-02-19T00:37:19.134Z,100713.00
2024-02-19T00:37:50.722Z,100716.00
2024-02-19T00:38:22.286Z,100708.91
2024-02-19T00:38:53.700Z,100714.09
2024-02-19T00:39:25.197Z,100714.91
2024-02-19T00:39:56.823Z,100708.38
2024-02-19T00:40:28.276Z,100704.59
2024-02-19T00:40:59.766Z,100715.47
2024-02-19T00:41:31.194Z,100719.84
2024-02-19T00:42:02.627Z,100722.56
2024-02-19T00:42:34.202Z,100708.13
2024-02-19T00:43:05.755Z,100718.19
2024-02-19T00:43:37.179Z,100714.41
2024-02-19T00:44:08.661Z,100724.72
2024-02-19T00:44:40.182Z,100715.47
2024-02-19T00:45:11.662Z,100706.50
2024-02-19T00:45:43.190Z,100715.72
2024-02-19T00:46:14.728Z,100717.63
2024-02-19T00:46:46.193Z,100724.72
2024-02-19T00:47:17.635Z,100721.44
2024-02-19T00:47:49.222Z,100723.91
2024-02-19T00:48:20.721Z,100718.44
2024-02-19T00:48:52.324Z,100727.44
2024-02-19T00:49:23.962Z,100723.91
2024-02-19T00:49:55.540Z,100731.53
2024-02-19T00:50:27.035Z,100729.06
2024-02-19T00:50:58.500Z,100724.44
2024-02-19T00:51:29.933Z,100725.53
2024-02-19T00:52:01.442Z,100725.53
2024-02-19T00:52:32.891Z,100737.50
2024-02-19T00:53:04.344Z,100737.75
2024-02-19T00:53:35.886Z,100732.31
2024-02-19T00:54:07.364Z,100739.41
2024-02-19T00:54:38.847Z,100738.56
2024-02-19T00:55:10.452Z,100741.28
2024-02-19T00:55:42.137Z,100740.47
2024-02-19T00:56:13.709Z,100742.63
2024-02-19T00:56:45.144Z,100741.00
2024-02-19T00:57:16.721Z,100737.19
2024-02-19T00:57:48.285Z,100745.09
2024-02-19T00:58:19.828Z,100744.84
2024-02-19T00:58:51.454Z,100739.41
2024-02-19T00:59:22.916Z,100742.94
2024-02-19T00:59:54.357Z,100744.84
2024-02-19T01:00:25.839Z,100734.78
2024-02-19T01:00:57.303Z,100739.41
2024-02-19T01:01:28.917Z,100723.34
2024-02-19T01:02:00.622Z,100745.91
2024-02-19T01:02:32.129Z,100742.63
2024-02-19T01:03:03.569Z,100739.66
2024-02-19T01:03:35.126Z,100751.63
2024-02-19T01:04:06.745Z,100751.63
2024-02-19T01:04:38.373Z,100747.00
2024-02-19T01:05:09.966Z,100740.72
2024-02-19T01:05:41.615Z,100748.63
2024-02-19T01:06:13.270Z,100742.88
2024-02-19T01:06:44.823Z,100741.81
2024-02-19T01:07:16.383Z,100745.09
2024-02-19T01:07:47.837Z,100754.34
2024-02-19T01:08:19.279Z,100753.78
2024-02-19T01:08:50.712Z,100742.88
2024-02-19T01:09:22.162Z,100749.16
2024-02-19T01:09:53.634Z,100752.38
2024-02-19T01:10:25.206Z,100758.41
2024-02-19T01:10:56.749Z,100761.38
2024-02-19T01:11:28.312Z,100745.31
2024-02-19T01:11:59.779Z,100752.13
2024-02-19T01:12:31.217Z,100752.13
2024-02-19T01:13:02.669Z,100753.78
2024-02-19T01:13:34.193Z,100743.41
2024-02-19T01:14:05.647Z,100747.78
2024-02-19T01:14:37.151Z,100757.84
2024-02-19T01:15:08.644Z,100760.56
2024-02-19T01:15:40.298Z,100758.41
2024-02-19T01:16:11.809Z,100763.28
2024-02-19T01:16:43.354Z,100763.84
2024-02-19T01:17:14.805Z,100766.56
2024-02-19T01:17:46.278Z,100766.00
2024-02-19T01:18:17.795Z,100763.84
2024-02-19T01:18:49.398Z,100762.19
2024-02-19T01:19:21.044Z,100765.47
2024-02-19T01:19:52.625Z,100764.91
2024-02-19T01:20:26.051Z,100767.38
2024-02-19T01:20:57.475Z,100770.09
2024-02-19T01:21:29.001Z,100767.38
2024-02-19T01:22:00.552Z,100764.66
2024-02-19T01:22:31.985Z,100774.72
2024-02-19T01:23:03.434Z,100769.00
2024-02-19T01:23:34.925Z,100770.09
2024-02-19T01:24:06.382Z,100765.47
2024-02-19T01:24:37.912Z,100755.66
2024-02-19T01:25:09.470Z,100769.00
2024-02-19T01:25:40.943Z,100769.28
2024-02-19T01:26:12.362Z,100768.44
2024-02-19T01:26:43.853Z,100772.81
2024-02-19T01:27:15.324Z,100766.28
2024-02-19T01:27:46.828Z,100764.66
2024-02-19T01:28:18.399Z,100766.56
2024-02-19T01:28:49.929Z,100772.81
2024-02-19T01:29:21.440Z,100771.75
2024-02-19T01:29:52.972Z,100773.63
2024-02-19T01:30:24.499Z,100771.75
2024-02-19T01:30:56.014Z,100778.00
2024-02-19T01:31:27.522Z,100780.72
2024-02-19T01:31:59.033Z,100780.72
2024-02-19T01:32:30.544Z,100773.38
2024-02-19T01:33:02.123Z,100772.00
2024-02-19T01:33:33.672Z,100780.97
2024-02-19T01:34:05.917Z,100778.50
2024-02-19T01:34:37.614Z,100783.94
2024-02-19T01:35:09.378Z,100773.91
2024-02-19T01:35:40.981Z,100782.06
2024-02-19T01:36:12.437Z,100789.41
2024-02-19T01:36:43.898Z,100782.88
2024-02-19T01:37:15.528Z,100785.59
2024-02-19T01:37:46.995Z,100796.47
2024-02-19T01:38:18.505Z,100793.50
2024-02-19T01:38:50.050Z,100788.88
2024-02-19T01:39:21.658Z,100784.25
2024-02-19T01:39:53.136Z,100793.25
2024-02-19T01:40:24.707Z,100790.53
2024-02-19T01:40:56.154Z,100792.41
2024-02-19T01:41:27.614Z,100802.47
2024-02-19T01:41:59.041Z,100795.41
2024-02-19T01:42:30.497Z,100801.91
2024-02-19T01:43:02.122Z,100798.94
2024-02-19T01:43:33.680Z,100797.28
2024-02-19T01:44:05.179Z,100804.13
2024-02-19T01:44:36.734Z,100798.69
2024-02-19T01:45:08.341Z,100803.88
2024-02-19T01:45:39.988Z,100806.59
2024-02-19T01:46:11.528Z,100808.22
2024-02-19T01:46:42.990Z,100800.06
2024-02-19T01:47:14.440Z,100807.41
2024-02-19T01:47:45.944Z,100811.19
2024-02-19T01:48:17.473Z,100806.84
2024-02-19T01:48:49.123Z,100809.56
2024-02-19T01:49:20.829Z,100807.91
2024-02-19T01:49:52.480Z,100813.34
2024-02-19T01:50:24.000Z,100813.09
2024-02-19T01:50:55.495Z,100811.41
2024-02-19T01:51:26.983Z,100812.78
2024-02-19T01:51:58.580Z,100814.94
2024-02-19T01:52:30.100Z,100811.66
2024-02-19T01:53:01.594Z,100814.13
2024-02-19T01:53:33.213Z,100818.19
2024-02-19T01:54:04.789Z,100819.81
2024-02-19T01:54:36.378Z,100823.13
2024-02-19T01:55:07.916Z,100817.94
2024-02-19T01:55:39.426Z,100814.13
2024-02-19T01:56:10.988Z,100818.75
2024-02-19T01:56:42.484Z,100824.19
2024-02-19T01:57:13.943Z,100822.56
2024-02-19T01:57:45.437Z,100816.28
2024-02-19T01:58:17.031Z,100815.72
2024-02-19T01:58:48.551Z,100823.31
2024-02-19T01:59:19.999Z,100823.06
2024-02-19T01:59:51.512Z,100820.59
2024-02-19T02:00:22.957Z,100824.97
2024-02-19T02:00:54.532Z,100821.97
2024-02-19T02:01:26.426Z,100828.50
2024-02-19T02:01:58.020Z,100828.25
2024-02-19T02:02:29.558Z,100828.25
2024-02-19T02:03:01.064Z,100823.06
2024-02-19T02:03:32.708Z,100820.84
2024-02-19T02:04:04.145Z,100821.41
2024-02-19T02:04:35.634Z,100818.44
2024-02-19T02:05:07.114Z,100831.47
2024-02-19T02:05:38.641Z,100827.16
2024-02-19T02:06:10.109Z,100834.75
2024-02-19T02:06:41.766Z,100830.16
2024-02-19T02:07:13.362Z,100834.75
2024-02-19T02:07:44.831Z,100828.50
2024-02-19T02:08:16.271Z,100823.06
2024-02-19T02:08:47.775Z,100832.88
2024-02-19T02:09:19.245Z,100833.94
2024-02-19T02:09:50.776Z,100830.66
2024-02-19T02:10:22.363Z,100831.47
2024-02-19T02:10:53.865Z,100832.28
2024-02-19T02:11:25.411Z,100833.13
2024-02-19T02:11:56.885Z,100836.66
2024-02-19T02:12:28.319Z,100833.69
2024-02-19T02:12:59.811Z,100833.13
2024-02-19T02:13:31.283Z,100831.22
2024-02-19T02:14:02.762Z,100828.50
2024-02-19T02:14:34.389Z,100830.16
2024-02-19T02:15:05.990Z,100831.78
2024-02-19T02:15:37.485Z,100835.31
2024-02-19T02:16:09.016Z,100833.44
2024-02-19T02:16:40.512Z,100839.94
2024-02-19T02:17:12.041Z,100838.31
2024-02-19T02:17:43.641Z,100835.59
2024-02-19T02:18:15.145Z,100837.78
2024-02-19T02:18:46.686Z,100832.59
2024-02-19T02:19:18.365Z,100833.13
2024-02-19T02:19:49.953Z,100827.69
2024-02-19T02:20:21.521Z,100838.56
2024-02-19T02:20:53.049Z,100836.66
2024-02-19T02:21:24.627Z,100843.50
2024-02-19T02:21:56.264Z,100834.50
2024-02-19T02:22:27.735Z,100833.94
2024-02-19T02:22:59.196Z,100842.66
2024-02-19T02:23:30.648Z,100833.13
2024-02-19T02:24:02.109Z,100834.47
2024-02-19T02:24:33.595Z,100840.47
2024-02-19T02:25:05.156Z,100840.47
2024-02-19T02:25:36.676Z,100845.59
2024-02-19T02:26:08.128Z,100839.91
2024-02-19T02:26:39.582Z,100845.34
2024-02-19T02:27:11.064Z,100845.34
2024-02-19T02:27:42.621Z,100844.50
2024-02-19T02:28:14.354Z,100841.78
2024-02-19T02:28:46.029Z,100855.38
2024-02-19T02:29:17.563Z,100839.63
2024-02-19T02:29:49.005Z,100847.78
2024-02-19T02:30:20.492Z,100854.06
2024-02-19T02:30:51.997Z,100847.78
2024-02-19T02:31:23.662Z,100850.50
2024-02-19T02:31:55.083Z,100847.53
2024-02-19T02:32:29.252Z,100846.47
2024-02-19T02:33:00.915Z,100844.56
2024-02-19T02:33:32.593Z,100845.38
2024-02-19T02:34:04.195Z,100850.00
2024-02-19T02:34:35.945Z,100846.47
2024-02-19T02:35:07.622Z,100843.19
2024-02-19T02:35:39.285Z,100843.44
2024-02-19T02:36:10.808Z,100845.34
2024-02-19T02:36:42.328Z,100841.53
2024-02-19T02:37:14.006Z,100848.63
2024-02-19T02:37:45.590Z,100852.16
2024-02-19T02:38:17.029Z,100847.53
2024-02-19T02:38:48.476Z,100850.25
2024-02-19T02:39:20.028Z,100851.09
2024-02-19T02:39:51.587Z,100850.50
2024-02-19T02:40:23.228Z,100852.41
2024-02-19T02:40:54.770Z,100846.97
2024-02-19T02:41:26.205Z,100850.50
2024-02-19T02:41:57.671Z,100858.41
2024-02-19T02:42:29.082Z,100852.16
2024-02-19T02:43:00.565Z,100852.41
2024-02-19T02:43:32.046Z,100852.41
2024-02-19T02:44:03.572Z,100855.97
2024-02-19T02:44:35.109Z,100855.97
2024-02-19T02:45:06.563Z,100853.25
2024-02-19T02:45:38.080Z,100852.41
2024-02-19T02:46:09.610Z,100856.78
2024-02-19T02:46:41.065Z,100861.41
2024-02-19T02:47:12.570Z,100851.03
2024-02-19T02:47:44.027Z,100857.84
2024-02-19T02:48:15.635Z,100852.41
2024-02-19T02:48:47.270Z,100855.97
2024-02-19T02:49:18.959Z,100854.31
2024-02-19T02:49:50.562Z,100854.31
2024-02-19T02:50:24.807Z,100861.09
2024-02-19T02:50:56.248Z,100858.09
2024-02-19T02:51:27.750Z,100864.38
2024-02-19T02:51:59.210Z,100855.13
2024-02-19T02:52:30.728Z,100861.41
2024-02-19T02:53:02.242Z,100856.72
2024-02-19T02:53:33.874Z,100858.38
2024-02-19T02:54:05.312Z,100846.91
2024-02-19T02:54:36.957Z,100855.66
2024-02-19T02:55:08.457Z,100861.66
2024-02-19T02:55:39.998Z,100851.84
2024-02-19T02:56:11.406Z,100857.78
2024-02-19T02:56:42.897Z,100859.44
2024-02-19T02:57:14.338Z,100864.63
2024-02-19T02:57:45.832Z,100859.19
2024-02-19T02:58:17.323Z,100858.38
2024-02-19T02:58:48.893Z,100857.84
2024-02-19T02:59:23.320Z,100859.75
2024-02-19T02:59:54.801Z,100864.13
2024-02-19T03:00:26.285Z,100854.31
2024-02-19T03:00:57.817Z,100858.94
2024-02-19T03:01:29.423Z,100857.84
2024-02-19T03:02:01.027Z,100861.41
2024-02-19T03:02:32.628Z,100862.22
2024-02-19T03:03:04.173Z,100865.75
2024-02-19T03:03:35.705Z,100855.69
2024-02-19T03:04:07.301Z,100872.28
2024-02-19T03:04:39.070Z,100857.84
2024-02-19T03:05:10.647Z,100866.28
2024-02-19T03:05:42.196Z,100866.28
2024-02-19T03:06:13.656Z,100864.31
2024-02-19T03:06:45.192Z,100861.34
2024-02-19T03:07:17.004Z,100867.34
2024-02-19T03:07:48.671Z,100859.44
2024-02-19T03:08:20.206Z,100868.69
2024-02-19T03:08:51.694Z,100874.94
2024-02-19T03:09:23.239Z,100861.34
2024-02-19T03:09:54.726Z,100869.25
2024-02-19T03:10:26.259Z,100867.59
2024-02-19T03:10:57.802Z,100869.00
2024-02-19T03:11:29.303Z,100871.72
2024-02-19T03:12:00.807Z,100869.25
2024-02-19T03:12:32.190Z,100875.25
2024-02-19T03:13:03.783Z,100872.22
2024-02-19T03:13:35.263Z,100874.69
2024-02-19T03:14:06.697Z,100881.19
2024-02-19T03:14:38.116Z,100876.59
2024-02-19T03:15:09.623Z,100877.41
2024-02-19T03:15:41.097Z,100884.75
2024-02-19T03:16:12.609Z,100876.91
2024-02-19T03:16:44.114Z,100882.91
2024-02-19T03:17:15.677Z,100879.34
2024-02-19T03:17:47.136Z,100873.91
2024-02-19T03:18:18.691Z,100881.00
2024-02-19T03:18:50.349Z,100877.47
2024-02-19T03:19:22.018Z,100874.19
2024-02-19T03:19:53.641Z,100878.53
2024-02-19T03:20:27.025Z,100880.44
2024-02-19T03:20:58.477Z,100880.19
2024-02-19T03:21:30.445Z,100882.34
2024-02-19T03:22:01.977Z,100883.72
2024-02-19T03:22:33.438Z,100881.25
2024-02-19T03:23:04.896Z,100879.34
2024-02-19T03:23:36.328Z,100882.06
2024-02-19T03:24:07.785Z,100879.34
2024-02-19T03:24:39.344Z,100881.25
2024-02-19T03:25:10.865Z,100883.16
2024-02-19T03:25:42.319Z,100879.34
2024-02-19T03:26:14.040Z,100883.97
2024-02-19T03:26:45.457Z,100884.78
2024-02-19T03:27:16.882Z,100880.44
2024-02-19T03:27:48.425Z,100877.97
2024-02-19T03:28:19.998Z,100885.06
2024-02-19T03:28:51.567Z,100881.50
2024-02-19T03:29:23.118Z,100876.06
2024-02-19T03:29:54.641Z,100879.03
2024-02-19T03:30:26.152Z,100880.13
2024-02-19T03:30:57.732Z,100876.84
2024-02-19T03:31:29.258Z,100882.59
2024-02-19T03:32:00.703Z,100876.31
2024-02-19T03:32:32.248Z,100879.63
2024-02-19T03:33:03.759Z,100878.78
2024-02-19T03:33:35.333Z,100877.16
2024-02-19T03:34:06.889Z,100877.16
2024-02-19T03:34:38.578Z,100882.34
2024-02-19T03:35:10.129Z,100877.16
2024-02-19T03:35:41.700Z,100877.97
2024-02-19T03:36:13.146Z,100876.06
2024-02-19T03:36:44.655Z,100879.63
2024-02-19T03:37:19.031Z,100876.91
2024-02-19T03:37:50.560Z,100879.63
2024-02-19T03:38:21.968Z,100877.97
2024-02-19T03:38:53.442Z,100879.63
2024-02-19T03:39:24.877Z,100879.63
2024-02-19T03:39:59.361Z,100877.97
2024-02-19T03:40:31.106Z,100874.19
2024-02-19T03:41:02.534Z,100879.63
2024-02-19T03:41:33.987Z,100871.13
2024-02-19T03:42:05.421Z,100872.78
2024-02-19T03:42:36.945Z,100871.97
2024-02-19T03:43:08.464Z,100877.97
2024-02-19T03:43:39.930Z,100879.63
2024-02-19T03:44:11.374Z,100883.41
2024-02-19T03:44:42.943Z,100885.06
2024-02-19T03:45:14.429Z,100883.41
2024-02-19T03:45:46.024Z,100884.75
2024-02-19T03:46:17.585Z,100883.91
2024-02-19T03:46:49.108Z,100885.00
2024-02-19T03:47:20.548Z,100887.72
2024-02-19T03:47:52.092Z,100886.91
2024-02-19T03:48:23.682Z,100887.72
2024-02-19T03:48:55.264Z,100885.25
2024-02-19T03:49:26.887Z,100890.69
2024-02-19T03:49:58.462Z,100886.06
2024-02-19T03:50:29.892Z,100888.22
2024-02-19T03:51:01.316Z,100890.69
2024-02-19T03:51:32.774Z,100885.81
2024-02-19T03:52:04.276Z,100891.50
2024-02-19T03:52:35.763Z,100896.69
2024-02-19T03:53:07.198Z,100894.22
2024-02-19T03:53:38.707Z,100893.16
2024-02-19T03:54:11.733Z,100899.41
2024-02-19T03:54:44.370Z,100896.69
2024-02-19T03:55:15.968Z,100902.69
2024-02-19T03:55:47.531Z,100905.41
2024-02-19T03:56:19.327Z,100901.88
2024-02-19T03:56:50.916Z,100902.97
2024-02-19T03:57:22.372Z,100910.28
2024-02-19T03:57:53.886Z,100907.56
2024-02-19T03:58:25.387Z,100911.13
2024-02-19T03:58:56.878Z,100904.84
2024-02-19T03:59:28.402Z,100905.69
2024-02-19T03:59:59.842Z,100915.47
2024-02-19T04:00:31.344Z,100908.41
2024-02-19T04:01:04.834Z,100899.97
2024-02-19T04:01:37.774Z,100908.16
2024-02-19T04:02:09.410Z,100903.53
2024-02-19T04:02:40.862Z,100910.03
2024-02-19T04:03:12.376Z,100905.41
2024-02-19T04:03:43.906Z,100898.59
2024-02-19T04:04:15.501Z,100906.75
2024-02-19T04:04:47.125Z,100901.06
2024-02-19T04:05:18.616Z,100901.88
2024-02-19T04:05:50.067Z,100903.78
2024-02-19T04:06:21.757Z,100904.59
2024-02-19T04:06:53.339Z,100914.91
2024-02-19T04:07:24.886Z,100909.72
2024-02-19T04:07:56.470Z,100908.91
2024-02-19T04:08:27.942Z,100914.09
2024-02-19T04:08:59.455Z,100913.84
2024-02-19T04:09:30.934Z,100911.38
2024-02-19T04:10:02.518Z,100912.19
2024-02-19T04:10:33.980Z,100914.91
2024-02-19T04:11:05.456Z,100917.88
2024-02-19T04:11:36.937Z,100910.53
2024-02-19T04:12:08.405Z,100914.09
2024-02-19T04:12:39.965Z,100910.53
2024-02-19T04:13:11.466Z,100908.41
2024-02-19T04:13:42.959Z,100907.81
2024-02-19T04:14:14.488Z,100910.53
2024-02-19T04:14:45.902Z,100914.91
2024-02-19T04:15:17.363Z,100910.53
2024-02-19T04:15:48.847Z,100913.84
2024-02-19T04:16:20.448Z,100916.56
2024-02-19T04:16:51.942Z,100916.00
2024-02-19T04:17:23.503Z,100916.00
2024-02-19T04:17:55.039Z,100916.00
2024-02-19T04:18:26.600Z,100916.00
2024-02-19T04:18:58.356Z,100914.34
2024-02-19T04:19:29.972Z,100903.22
2024-02-19T04:20:01.459Z,100906.75
2024-02-19T04:20:32.942Z,100914.66
2024-02-19T04:21:04.454Z,100912.44
2024-02-19T04:21:35.984Z,100909.47
2024-02-19T04:22:07.555Z,100913.84
2024-02-19T04:22:39.090Z,100909.47
2024-02-19T04:23:10.571Z,100913.28
2024-02-19T04:23:42.007Z,100922.81
2024-02-19T04:24:13.503Z,100914.09
2024-02-19T04:24:45.070Z,100914.66
2024-02-19T04:25:16.603Z,100916.56
2024-02-19T04:25:48.128Z,100917.38
2024-02-19T04:26:19.610Z,100911.94
2024-02-19T04:26:51.065Z,100918.19
2024-02-19T04:27:22.532Z,100911.13
2024-02-19T04:27:53.980Z,100902.97
2024-02-19T04:28:25.536Z,100912.19
2024-02-19T04:28:56.980Z,100907.81
2024-02-19T04:29:28.420Z,100907.81
2024-02-19T04:29:59.894Z,100907.56
2024-02-19T04:30:31.429Z,100917.63
2024-02-19T04:31:02.948Z,100912.44
2024-02-19T04:31:37.329Z,100911.38
2024-02-19T04:32:08.734Z,100908.66
2024-02-19T04:32:40.358Z,100908.41
2024-02-19T04:33:11.866Z,100918.19
2024-02-19T04:33:43.569Z,100911.94
2024-02-19T04:34:15.265Z,100915.22
2024-02-19T04:34:46.946Z,100913.59
2024-02-19T04:35:18.474Z,100919.03
2024-02-19T04:35:49.968Z,100918.75
2024-02-19T04:36:21.420Z,100915.47
2024-02-19T04:36:52.910Z,100915.22
2024-02-19T04:37:24.413Z,100915.22
2024-02-19T04:37:56.006Z,100910.84
2024-02-19T04:38:27.577Z,100920.91
2024-02-19T04:38:59.088Z,100923.38
2024-02-19T04:39:30.539Z,100921.50
2024-02-19T04:40:02.032Z,100922.31
2024-02-19T04:40:33.535Z,100918.75
2024-02-19T04:41:05.029Z,100916.88
2024-02-19T04:41:36.526Z,100920.41
2024-02-19T04:42:07.990Z,100920.41
2024-02-19T04:42:39.562Z,100922.31
2024-02-19T04:43:11.088Z,100920.41
2024-02-19T04:43:42.569Z,100921.22
2024-02-19T04:44:14.073Z,100923.94
2024-02-19T04:44:45.549Z,100915.78
2024-02-19T04:45:17.018Z,100919.34
2024-02-19T04:45:48.506Z,100921.22
2024-02-19T04:46:20.184Z,100923.69
2024-02-19T04:46:51.678Z,100922.88
2024-02-19T04:47:23.181Z,100927.50
2024-02-19T04:47:54.662Z,100922.06
2024-02-19T04:48:26.173Z,100924.78
2024-02-19T04:48:57.745Z,100932.13
2024-02-19T04:49:29.370Z,100927.50
2024-02-19T04:50:01.193Z,100934.84
2024-02-19T04:50:32.851Z,100935.66
2024-02-19T04:51:04.362Z,100931.03
2024-02-19T04:51:35.798Z,100934.00
2024-02-19T04:52:07.277Z,100934.84
2024-02-19T04:52:38.750Z,100935.66
2024-02-19T04:53:11.873Z,100936.47
2024-02-19T04:53:44.651Z,100930.47
2024-02-19T04:54:16.166Z,100939.44
2024-02-19T04:54:47.751Z,100932.13
2024-02-19T04:55:19.349Z,100940.28
2024-02-19T04:55:50.870Z,100934.84
2024-02-19T04:56:22.301Z,100940.28
2024-02-19T04:56:53.750Z,100934.84
2024-02-19T04:57:25.196Z,100937.56
2024-02-19T04:57:56.658Z,100932.13
2024-02-19T04:58:28.147Z,100926.66
2024-02-19T04:58:59.713Z,100933.75
2024-02-19T04:59:31.289Z,100938.38
2024-02-19T05:00:02.762Z,100934.56
2024-02-19T05:00:34.301Z,100935.66
2024-02-19T05:01:05.849Z,100936.47
2024-02-19T05:01:37.486Z,100932.94
2024-02-19T05:02:09.121Z,100937.31
2024-02-19T05:02:40.587Z,100933.50
2024-02-19T05:03:13.601Z,100943.56
2024-02-19T05:03:46.401Z,100940.03
2024-02-19T05:04:17.896Z,100931.84
2024-02-19T05:04:49.480Z,100941.91
2024-02-19T05:05:21.075Z,100938.38
2024-02-19T05:05:52.566Z,100941.09
2024-02-19T05:06:24.117Z,100940.28
2024-02-19T05:06:55.720Z,100934.84
2024-02-19T05:07:27.279Z,100936.47
2024-02-19T05:07:58.954Z,100940.03
2024-02-19T05:08:30.477Z,100935.66
2024-02-19T05:09:01.961Z,100941.91
2024-02-19T05:09:33.443Z,100939.19
2024-02-19T05:10:05.260Z,100939.44
2024-02-19T05:10:36.806Z,100938.63
2024-02-19T05:11:08.387Z,100941.34
2024-02-19T05:11:39.922Z,100943.25
2024-02-19T05:12:11.401Z,100940.28
2024-02-19T05:12:42.955Z,100950.31
2024-02-19T05:13:14.483Z,100944.06
2024-02-19T05:13:45.978Z,100943.25
2024-02-19T05:14:17.419Z,100939.97
2024-02-19T05:14:49.057Z,100945.16
2024-02-19T05:15:20.549Z,100940.53
2024-02-19T05:15:52.114Z,100936.97
2024-02-19T05:16:23.537Z,100937.50
2024-02-19T05:16:55.108Z,100940.78
2024-02-19T05:17:26.629Z,100942.44
2024-02-19T05:17:58.341Z,100937.25
2024-02-19T05:18:29.924Z,100939.69
2024-02-19T05:19:01.620Z,100943.25
2024-02-19T05:19:33.336Z,100941.34
2024-02-19T05:20:04.820Z,100935.91
2024-02-19T05:20:39.164Z,100934.00
2024-02-19T05:21:10.695Z,100936.72
2024-02-19T05:21:42.305Z,100938.38
2024-02-19T05:22:13.954Z,100933.19
2024-02-19T05:22:45.415Z,100942.44
2024-02-19T05:23:16.871Z,100939.44
2024-02-19T05:23:48.357Z,100940.53
2024-02-19T05:24:19.833Z,100934.53
2024-02-19T05:24:51.484Z,100935.34
2024-02-19T05:25:22.988Z,100936.16
2024-02-19T05:25:54.571Z,100935.09
2024-02-19T05:26:25.986Z,100936.72
2024-02-19T05:26:57.543Z,100928.56
2024-02-19T05:27:29.060Z,100929.41
2024-02-19T05:28:00.568Z,100931.53
2024-02-19T05:28:32.036Z,100936.72
2024-02-19T05:29:03.549Z,100928.56
2024-02-19T05:29:34.993Z,100938.38
2024-02-19T05:30:06.424Z,100933.19
2024-02-19T05:30:37.959Z,100929.41
2024-02-19T05:31:09.504Z,100934.00
2024-02-19T05:31:41.014Z,100940.53
2024-02-19T05:32:12.468Z,100936.97
2024-02-19T05:32:44.000Z,100931.53
2024-02-19T05:33:15.539Z,100943.25
2024-02-19T05:33:47.096Z,100939.44
2024-02-19T05:34:18.750Z,100935.09
2024-02-19T05:34:50.208Z,100935.66
2024-02-19T05:35:21.709Z,100938.38
2024-02-19T05:35:53.204Z,100937.56
2024-02-19T05:36:24.668Z,100937.56
2024-02-19T05:36:56.193Z,100937.56
2024-02-19T05:37:27.676Z,100936.72
2024-02-19T05:37:59.238Z,100935.66
2024-02-19T05:38:30.729Z,100943.00
2024-02-19T05:39:02.208Z,100938.38
2024-02-19T05:39:33.693Z,100940.28
2024-02-19T05:40:05.186Z,100941.09
2024-02-19T05:40:36.774Z,100942.16
2024-02-19T05:41:08.480Z,100943.25
2024-02-19T05:41:39.968Z,100944.06
2024-02-19T05:42:11.476Z,100944.06
2024-02-19T05:42:42.984Z,100942.16
2024-02-19T05:43:14.495Z,100942.16
2024-02-19T05:43:46.014Z,100944.88
2024-02-19T05:44:17.496Z,100942.44
2024-02-19T05:44:48.989Z,100944.06
2024-02-19T05:45:20.538Z,100931.28
2024-02-19T05:45:52.193Z,100943.00
2024-02-19T05:46:23.949Z,100945.16
2024-02-19T05:46:55.555Z,100945.72
2024-02-19T05:47:27.015Z,100943.25
2024-02-19T05:47:58.583Z,100943.00
2024-02-19T05:48:30.083Z,100939.69
2024-02-19T05:49:01.765Z,100942.16
2024-02-19T05:49:33.385Z,100943.25
2024-02-19T05:50:04.938Z,100945.97
2024-02-19T05:50:36.449Z,100939.69
2024-02-19T05:51:07.918Z,100948.69
2024-02-19T05:51:39.398Z,100954.13
2024-02-19T05:52:10.897Z,100953.31
2024-02-19T05:52:42.380Z,100946.22
2024-02-19T05:53:13.792Z,100943.50
2024-02-19T05:53:45.325Z,100948.69
2024-02-19T05:54:16.782Z,100950.59
2024-02-19T05:54:48.326Z,100945.97
2024-02-19T05:55:19.936Z,100947.28
2024-02-19T05:55:51.494Z,100944.56
2024-02-19T05:56:22.961Z,100950.84
2024-02-19T05:56:54.467Z,100950.84
2024-02-19T05:57:25.932Z,100952.72
2024-02-19T05:57:57.415Z,100955.72
2024-02-19T05:58:28.898Z,100954.63
2024-02-19T05:59:00.361Z,100953.00
2024-02-19T05:59:31.938Z,100950.28
2024-02-19T06:00:03.409Z,100954.88
2024-02-19T06:00:35.003Z,100954.06